Share

Stip, Macedonia

4:02 PM CEST on April 24, 2014 (GMT +0200)
Skopje (LWSK) Elev 784 ft | 41.97 °N, 21.65 °E | Change Station

Current weather conditions updated 2 minutes ago

Scattered Clouds
Scattered Clouds
66 °F
Feels Like 66 °F
N
18
Wind Variable Wind from NNE
Sunrise 5:37 AM
Sunset 7:21 PM
Moon Waning Crescent

Tomorrow is forecast to be Cooler than today. Rain and thunder.

Pressure 29.74 in
Visibility 6.2 miles
Clouds Few 3300 ft
Scattered Clouds 5000 ft
Dew Point 54 °F
Humidity 64%
Rainfall 0.00 in
Snow Depth Not available.
UV 3 out of 16
Pollen Not available.
Air Quality Not available.
Flu Activity Not available.
METAR LWSK 241400Z 02016KT 9999 FEW033CB SCT050 19/12 Q1007 TEMPO VRB15G25KT 5000 TSRA SCT033CB BKN040

More Conditions Fewer Conditions

Pressure 29.74 in
Visibility 6.2 miles
Clouds Few 3300 ft
Scattered Clouds 5000 ft
Dew Point 54 °F
Humidity 64%
Rainfall 0.00 in
Snow Depth Not available.
UV 3 out of 16
Pollen Not available.
Air Quality Not available.
Flu Activity Not available.
METAR LWSK 241400Z 02016KT 9999 FEW033CB SCT050 19/12 Q1007 TEMPO VRB15G25KT 5000 TSRA SCT033CB BKN040

More Conditions Fewer Conditions

10-Day Weather Forecast

Almanac

Astronomy

Apr. 24, 2014 Rise Set
Actual Time 5:37 AM CEST 7:21 PM CEST
Civil Twilight 5:08 AM CEST 7:51 PM CEST
Nautical Twilight 4:32 AM CEST 8:27 PM CEST
Astronomical Twilight 3:54 AM CEST 9:06 PM CEST
Moon 2:41 AM CEST 2:12 PM CEST
Length of Visible Light 14h 42m
Length of Day
13h 43m
Tomorrow will be 2m 33s longer.
Waning Crescent, 25% of the Moon is Illuminated
Today
Waning Crescent
Apr 29
New
May 6
First Quarter
May 14
Full
May 21
Last Quarter

Yesterday's Extremes

Country Highs Country Lows

Community

  • Clouds mov'n in
    Clouds mov'n in
  • Stacked
    Stacked
  • clouds approaching Red Sox Nation
    clouds approaching Red Sox Nation
  • Balance
    Balance
  • Citysky
    Citysky

WunderPhotos

Upload Photos

1,704,612 photos uploaded!

Nearby

Snow Depth

Not available.

Coastal Water Temperatures

Place Temperature
No Stations Reporting

Earthquake Activity

City Distance Mag. Time & Date
No recent earthquake activity has been reported nearby.
Minimum magnitude displayed is 2.5.

Nearby Weather Stations

There are no personal weather stations in this area.

What do you think?

We're not finished. Please let us know what you like, what you don't like, and what you are still missing.